sensor_id;sensor_type;location;lat;lon;timestamp;pressure;altitude;pressure_sealevel;temperature;humidity
21869;BME280;11099;41.564;23.296;2022-08-25T00:01:26;97340.59;;;20.46;nan
21869;BME280;11099;41.564;23.296;2022-08-25T00:03:51;97276.97;;;20.11;nan
21869;BME280;11099;41.564;23.296;2022-08-25T00:06:18;97345.00;;;20.68;nan
21869;BME280;11099;41.564;23.296;2022-08-25T00:08:43;97314.84;;;20.66;nan
21869;BME280;11099;41.564;23.296;2022-08-25T00:11:16;97363.75;;;21.02;nan
21869;BME280;11099;41.564;23.296;2022-08-25T00:13:45;97354.47;;;21.03;nan
21869;BME280;11099;41.564;23.296;2022-08-25T00:16:13;97321.84;;;20.74;nan
21869;BME280;11099;41.564;23.296;2022-08-25T00:18:40;97366.84;;;21.04;nan
21869;BME280;11099;41.564;23.296;2022-08-25T00:21:07;97313.38;;;20.79;nan
21869;BME280;11099;41.564;23.296;2022-08-25T00:23:33;97351.63;;;20.78;nan
21869;BME280;11099;41.564;23.296;2022-08-25T00:26:00;97194.56;;;19.91;nan
21869;BME280;11099;41.564;23.296;2022-08-25T00:28:26;97199.03;;;20.20;nan
21869;BME280;11099;41.564;23.296;2022-08-25T00:33:38;97202.56;;;19.77;nan
21869;BME280;11099;41.564;23.296;2022-08-25T00:36:04;97209.31;;;20.00;nan
21869;BME280;11099;41.564;23.296;2022-08-25T00:38:29;97241.22;;;20.36;nan
21869;BME280;11099;41.564;23.296;2022-08-25T00:40:56;97182.56;;;19.85;nan
21869;BME280;11099;41.564;23.296;2022-08-25T00:46:09;97359.16;;;21.06;nan
21869;BME280;11099;41.564;23.296;2022-08-25T00:48:38;97363.09;;;21.23;nan
21869;BME280;11099;41.564;23.296;2022-08-25T00:51:06;97363.81;;;21.13;nan
21869;BME280;11099;41.564;23.296;2022-08-25T00:53:33;97361.41;;;20.97;nan
21869;BME280;11099;41.564;23.296;2022-08-25T00:55:59;97355.38;;;21.21;nan
21869;BME280;11099;41.564;23.296;2022-08-25T00:58:28;97263.03;;;20.61;nan
21869;BME280;11099;41.564;23.296;2022-08-25T01:00:57;97322.63;;;20.71;nan
21869;BME280;11099;41.564;23.296;2022-08-25T01:03:27;97309.44;;;20.66;nan
21869;BME280;11099;41.564;23.296;2022-08-25T01:05:55;97279.06;;;20.36;nan
21869;BME280;11099;41.564;23.296;2022-08-25T01:08:30;97327.59;;;20.66;nan
21869;BME280;11099;41.564;23.296;2022-08-25T01:11:02;97210.59;;;19.32;nan
21869;BME280;11099;41.564;23.296;2022-08-25T01:13:45;97205.03;;;19.14;nan
21869;BME280;11099;41.564;23.296;2022-08-25T01:16:12;97331.16;;;20.29;nan
21869;BME280;11099;41.564;23.296;2022-08-25T01:18:54;97276.97;;;20.11;nan
21869;BME280;11099;41.564;23.296;2022-08-25T01:21:22;97281.66;;;20.21;nan
21869;BME280;11099;41.564;23.296;2022-08-25T01:23:49;97291.88;;;19.94;nan
21869;BME280;11099;41.564;23.296;2022-08-25T01:26:27;97302.25;;;19.92;nan
21869;BME280;11099;41.564;23.296;2022-08-25T01:28:54;97242.81;;;19.52;nan
21869;BME280;11099;41.564;23.296;2022-08-25T01:32:00;97255.94;;;19.53;nan
21869;BME280;11099;41.564;23.296;2022-08-25T01:34:29;97305.63;;;20.23;nan
21869;BME280;11099;41.564;23.296;2022-08-25T01:36:56;97307.00;;;20.50;nan
21869;BME280;11099;41.564;23.296;2022-08-25T01:39:23;97282.88;;;20.31;nan
21869;BME280;11099;41.564;23.296;2022-08-25T01:42:03;97311.66;;;20.53;nan
21869;BME280;11099;41.564;23.296;2022-08-25T01:44:38;97310.56;;;20.65;nan
21869;BME280;11099;41.564;23.296;2022-08-25T01:47:05;97208.22;;;20.09;nan
21869;BME280;11099;41.564;23.296;2022-08-25T01:49:31;97285.38;;;20.50;nan
21869;BME280;11099;41.564;23.296;2022-08-25T01:52:20;97315.63;;;20.70;nan
21869;BME280;11099;41.564;23.296;2022-08-25T01:54:48;97272.25;;;20.52;nan
21869;BME280;11099;41.564;23.296;2022-08-25T01:57:14;97216.97;;;19.91;nan
21869;BME280;11099;41.564;23.296;2022-08-25T01:59:39;97298.66;;;20.73;nan
21869;BME280;11099;41.564;23.296;2022-08-25T02:02:06;97286.72;;;20.78;nan
21869;BME280;11099;41.564;23.296;2022-08-25T02:04:32;97289.50;;;20.96;nan
21869;BME280;11099;41.564;23.296;2022-08-25T02:07:00;97293.72;;;20.90;nan
21869;BME280;11099;41.564;23.296;2022-08-25T02:09:25;97277.28;;;20.54;nan
21869;BME280;11099;41.564;23.296;2022-08-25T02:11:51;97168.53;;;20.20;nan
21869;BME280;11099;41.564;23.296;2022-08-25T02:14:17;97162.69;;;20.14;nan
21869;BME280;11099;41.564;23.296;2022-08-25T02:16:47;97299.94;;;20.97;nan
21869;BME280;11099;41.564;23.296;2022-08-25T02:19:14;97290.16;;;20.75;nan
21869;BME280;11099;41.564;23.296;2022-08-25T02:21:40;97271.63;;;20.77;nan
21869;BME280;11099;41.564;23.296;2022-08-25T02:24:06;97247.56;;;20.58;nan
21869;BME280;11099;41.564;23.296;2022-08-25T02:26:31;97264.50;;;20.47;nan
21869;BME280;11099;41.564;23.296;2022-08-25T02:28:57;97333.59;;;21.00;nan
21869;BME280;11099;41.564;23.296;2022-08-25T02:31:24;97339.44;;;21.05;nan
21869;BME280;11099;41.564;23.296;2022-08-25T02:33:51;97336.72;;;21.05;nan
21869;BME280;11099;41.564;23.296;2022-08-25T02:36:18;97323.25;;;21.16;nan
21869;BME280;11099;41.564;23.296;2022-08-25T02:38:43;97291.00;;;20.86;nan
21869;BME280;11099;41.564;23.296;2022-08-25T02:41:14;97231.53;;;20.27;nan
21869;BME280;11099;41.564;23.296;2022-08-25T02:43:42;97327.88;;;21.19;nan
21869;BME280;11099;41.564;23.296;2022-08-25T02:46:09;97326.31;;;21.15;nan
21869;BME280;11099;41.564;23.296;2022-08-25T02:48:36;97272.88;;;20.94;nan
21869;BME280;11099;41.564;23.296;2022-08-25T02:51:03;97344.00;;;20.98;nan
21869;BME280;11099;41.564;23.296;2022-08-25T02:53:31;97349.66;;;21.37;nan
21869;BME280;11099;41.564;23.296;2022-08-25T02:55:57;97259.63;;;20.74;nan
21869;BME280;11099;41.564;23.296;2022-08-25T02:58:23;97349.31;;;21.53;nan
21869;BME280;11099;41.564;23.296;2022-08-25T03:00:49;97363.31;;;21.66;nan
21869;BME280;11099;41.564;23.296;2022-08-25T03:03:15;97371.31;;;21.37;nan
21869;BME280;11099;41.564;23.296;2022-08-25T03:05:41;97350.75;;;21.29;nan
21869;BME280;11099;41.564;23.296;2022-08-25T03:08:07;97375.59;;;21.42;nan
21869;BME280;11099;41.564;23.296;2022-08-25T03:10:33;97286.06;;;20.99;nan
21869;BME280;11099;41.564;23.296;2022-08-25T03:12:58;97393.97;;;21.88;nan
21869;BME280;11099;41.564;23.296;2022-08-25T03:15:24;97303.91;;;21.18;nan
21869;BME280;11099;41.564;23.296;2022-08-25T03:17:52;97373.44;;;21.90;nan
21869;BME280;11099;41.564;23.296;2022-08-25T03:20:20;97379.28;;;21.12;nan
21869;BME280;11099;41.564;23.296;2022-08-25T03:22:46;97377.91;;;21.40;nan
21869;BME280;11099;41.564;23.296;2022-08-25T03:25:11;97307.28;;;20.97;nan
21869;BME280;11099;41.564;23.296;2022-08-25T03:27:56;97344.03;;;21.01;nan
21869;BME280;11099;41.564;23.296;2022-08-25T03:30:21;97297.94;;;20.84;nan
21869;BME280;11099;41.564;23.296;2022-08-25T03:32:47;97310.47;;;21.13;nan
21869;BME280;11099;41.564;23.296;2022-08-25T03:35:13;97336.91;;;20.72;nan
21869;BME280;11099;41.564;23.296;2022-08-25T03:37:39;97360.41;;;20.61;nan
21869;BME280;11099;41.564;23.296;2022-08-25T03:40:07;97348.75;;;20.53;nan
21869;BME280;11099;41.564;23.296;2022-08-25T03:42:34;97332.63;;;20.67;nan
21869;BME280;11099;41.564;23.296;2022-08-25T03:45:02;97332.19;;;20.62;nan
21869;BME280;11099;41.564;23.296;2022-08-25T03:47:28;97335.03;;;20.32;nan
21869;BME280;11099;41.564;23.296;2022-08-25T03:49:55;97224.59;;;19.82;nan
21869;BME280;11099;41.564;23.296;2022-08-25T03:52:21;97250.16;;;19.92;nan
21869;BME280;11099;41.564;23.296;2022-08-25T03:54:46;97297.81;;;20.14;nan
21869;BME280;11099;41.564;23.296;2022-08-25T03:57:12;97154.69;;;19.29;nan
21869;BME280;11099;41.564;23.296;2022-08-25T03:59:37;97260.91;;;20.36;nan
21869;BME280;11099;41.564;23.296;2022-08-25T04:02:04;97287.53;;;20.31;nan
21869;BME280;11099;41.564;23.296;2022-08-25T04:04:30;97259.31;;;20.28;nan
21869;BME280;11099;41.564;23.296;2022-08-25T04:06:56;97235.91;;;19.95;nan
21869;BME280;11099;41.564;23.296;2022-08-25T04:09:23;97316.28;;;20.49;nan
21869;BME280;11099;41.564;23.296;2022-08-25T04:11:49;97311.28;;;20.51;nan
21869;BME280;11099;41.564;23.296;2022-08-25T04:14:15;97227.47;;;20.00;nan
21869;BME280;11099;41.564;23.296;2022-08-25T04:16:41;97306.06;;;20.29;nan
21869;BME280;11099;41.564;23.296;2022-08-25T04:19:07;97302.78;;;20.53;nan
21869;BME280;11099;41.564;23.296;2022-08-25T04:21:35;97157.22;;;19.56;nan
21869;BME280;11099;41.564;23.296;2022-08-25T04:24:02;97248.53;;;20.32;nan
21869;BME280;11099;41.564;23.296;2022-08-25T04:26:37;97296.44;;;20.35;nan
21869;BME280;11099;41.564;23.296;2022-08-25T04:29:04;97291.28;;;20.67;nan
21869;BME280;11099;41.564;23.296;2022-08-25T04:31:31;97186.13;;;19.96;nan
21869;BME280;11099;41.564;23.296;2022-08-25T04:33:57;97292.72;;;20.50;nan
21869;BME280;11099;41.564;23.296;2022-08-25T04:36:23;97187.41;;;20.13;nan
21869;BME280;11099;41.564;23.296;2022-08-25T04:38:49;97165.44;;;20.21;nan
21869;BME280;11099;41.564;23.296;2022-08-25T04:41:16;97268.25;;;20.94;nan
21869;BME280;11099;41.564;23.296;2022-08-25T04:43:42;97287.34;;;21.26;nan
21869;BME280;11099;41.564;23.296;2022-08-25T04:46:14;97293.13;;;21.28;nan
21869;BME280;11099;41.564;23.296;2022-08-25T04:48:41;97298.97;;;21.30;nan
21869;BME280;11099;41.564;23.296;2022-08-25T04:51:09;97295.50;;;21.34;nan
21869;BME280;11099;41.564;23.296;2022-08-25T04:53:35;97267.88;;;20.99;nan
21869;BME280;11099;41.564;23.296;2022-08-25T04:56:05;97294.38;;;21.45;nan
21869;BME280;11099;41.564;23.296;2022-08-25T04:58:31;97261.00;;;21.23;nan
21869;BME280;11099;41.564;23.296;2022-08-25T05:01:07;97287.00;;;21.42;nan
21869;BME280;11099;41.564;23.296;2022-08-25T05:03:33;97184.69;;;20.78;nan
21869;BME280;11099;41.564;23.296;2022-08-25T05:05:59;97209.47;;;20.98;nan
21869;BME280;11099;41.564;23.296;2022-08-25T05:08:25;97306.72;;;21.32;nan
21869;BME280;11099;41.564;23.296;2022-08-25T05:10:50;97274.63;;;21.38;nan
21869;BME280;11099;41.564;23.296;2022-08-25T05:13:19;97173.53;;;20.98;nan
21869;BME280;11099;41.564;23.296;2022-08-25T05:15:57;97202.34;;;20.51;nan
21869;BME280;11099;41.564;23.296;2022-08-25T05:18:26;97256.94;;;20.78;nan
21869;BME280;11099;41.564;23.296;2022-08-25T05:20:53;97181.53;;;20.62;nan
21869;BME280;11099;41.564;23.296;2022-08-25T05:23:20;97259.81;;;21.10;nan
21869;BME280;11099;41.564;23.296;2022-08-25T05:25:46;97223.84;;;21.06;nan
21869;BME280;11099;41.564;23.296;2022-08-25T05:28:12;97169.97;;;20.72;nan
21869;BME280;11099;41.564;23.296;2022-08-25T05:30:40;97286.28;;;21.63;nan
21869;BME280;11099;41.564;23.296;2022-08-25T05:33:07;97283.34;;;21.02;nan
21869;BME280;11099;41.564;23.296;2022-08-25T05:35:32;97241.47;;;20.71;nan
21869;BME280;11099;41.564;23.296;2022-08-25T05:37:58;97180.28;;;20.49;nan
21869;BME280;11099;41.564;23.296;2022-08-25T05:40:24;97184.28;;;20.73;nan
21869;BME280;11099;41.564;23.296;2022-08-25T05:42:50;97170.44;;;20.92;nan
21869;BME280;11099;41.564;23.296;2022-08-25T05:45:16;97177.06;;;21.20;nan
21869;BME280;11099;41.564;23.296;2022-08-25T05:47:42;97127.06;;;20.64;nan
21869;BME280;11099;41.564;23.296;2022-08-25T05:50:08;97282.78;;;21.45;nan
21869;BME280;11099;41.564;23.296;2022-08-25T05:52:34;97286.59;;;21.37;nan
21869;BME280;11099;41.564;23.296;2022-08-25T05:55:01;97167.63;;;20.71;nan
21869;BME280;11099;41.564;23.296;2022-08-25T05:57:27;97122.25;;;20.29;nan
21869;BME280;11099;41.564;23.296;2022-08-25T05:59:54;97275.84;;;21.69;nan
21869;BME280;11099;41.564;23.296;2022-08-25T06:02:20;97142.16;;;20.75;nan
21869;BME280;11099;41.564;23.296;2022-08-25T06:05:04;97220.38;;;21.13;nan
21869;BME280;11099;41.564;23.296;2022-08-25T06:07:29;97231.25;;;21.27;nan
21869;BME280;11099;41.564;23.296;2022-08-25T06:09:55;97173.56;;;21.01;nan
21869;BME280;11099;41.564;23.296;2022-08-25T06:12:21;97206.06;;;21.12;nan
21869;BME280;11099;41.564;23.296;2022-08-25T06:14:47;97266.53;;;21.52;nan
21869;BME280;11099;41.564;23.296;2022-08-25T06:17:14;97139.53;;;21.04;nan
21869;BME280;11099;41.564;23.296;2022-08-25T06:19:40;97162.88;;;21.76;nan
21869;BME280;11099;41.564;23.296;2022-08-25T06:22:05;97201.94;;;21.61;nan
21869;BME280;11099;41.564;23.296;2022-08-25T06:24:31;97272.81;;;22.24;nan
21869;BME280;11099;41.564;23.296;2022-08-25T06:26:57;97199.59;;;21.63;nan
21869;BME280;11099;41.564;23.296;2022-08-25T06:29:23;97217.34;;;22.71;nan
21869;BME280;11099;41.564;23.296;2022-08-25T06:31:49;97210.75;;;22.72;nan
21869;BME280;11099;41.564;23.296;2022-08-25T06:34:16;97268.56;;;23.64;nan
21869;BME280;11099;41.564;23.296;2022-08-25T06:36:42;97124.63;;;22.87;nan
21869;BME280;11099;41.564;23.296;2022-08-25T06:39:08;97248.72;;;23.67;nan
21869;BME280;11099;41.564;23.296;2022-08-25T06:41:35;97247.38;;;23.97;nan
21869;BME280;11099;41.564;23.296;2022-08-25T06:44:02;97264.38;;;24.53;nan
21869;BME280;11099;41.564;23.296;2022-08-25T06:46:28;97202.28;;;24.44;nan
21869;BME280;11099;41.564;23.296;2022-08-25T06:48:56;97260.16;;;24.86;nan
21869;BME280;11099;41.564;23.296;2022-08-25T06:51:23;97204.72;;;24.31;nan
21869;BME280;11099;41.564;23.296;2022-08-25T06:53:50;97258.66;;;24.78;nan
21869;BME280;11099;41.564;23.296;2022-08-25T06:56:18;97253.41;;;24.18;nan
21869;BME280;11099;41.564;23.296;2022-08-25T06:58:44;97181.81;;;23.84;nan
21869;BME280;11099;41.564;23.296;2022-08-25T07:01:12;97262.19;;;24.33;nan
21869;BME280;11099;41.564;23.296;2022-08-25T07:03:39;97260.31;;;24.27;nan
21869;BME280;11099;41.564;23.296;2022-08-25T07:06:05;97192.06;;;23.62;nan
21869;BME280;11099;41.564;23.296;2022-08-25T07:08:31;97273.50;;;24.28;nan
21869;BME280;11099;41.564;23.296;2022-08-25T07:10:57;97249.50;;;24.19;nan
21869;BME280;11099;41.564;23.296;2022-08-25T07:13:23;97197.53;;;24.10;nan
21869;BME280;11099;41.564;23.296;2022-08-25T07:15:53;97255.25;;;25.08;nan
21869;BME280;11099;41.564;23.296;2022-08-25T07:18:19;97188.91;;;25.21;nan
21869;BME280;11099;41.564;23.296;2022-08-25T07:20:44;97216.56;;;25.20;nan
21869;BME280;11099;41.564;23.296;2022-08-25T07:23:10;97254.41;;;25.72;nan
21869;BME280;11099;41.564;23.296;2022-08-25T07:25:36;97249.13;;;24.96;nan
21869;BME280;11099;41.564;23.296;2022-08-25T07:28:02;97236.63;;;24.68;nan
21869;BME280;11099;41.564;23.296;2022-08-25T07:30:29;97232.16;;;25.19;nan
21869;BME280;11099;41.564;23.296;2022-08-25T07:32:54;97234.94;;;25.97;nan
21869;BME280;11099;41.564;23.296;2022-08-25T07:35:20;97171.72;;;25.28;nan
21869;BME280;11099;41.564;23.296;2022-08-25T07:37:53;97177.97;;;25.79;nan
21869;BME280;11099;41.564;23.296;2022-08-25T07:40:28;97244.50;;;26.32;nan
21869;BME280;11099;41.564;23.296;2022-08-25T07:42:55;97148.22;;;26.12;nan
21869;BME280;11099;41.564;23.296;2022-08-25T07:45:24;97161.41;;;25.66;nan
21869;BME280;11099;41.564;23.296;2022-08-25T07:47:58;97203.88;;;26.38;nan
21869;BME280;11099;41.564;23.296;2022-08-25T07:50:24;97237.03;;;26.60;nan
21869;BME280;11099;41.564;23.296;2022-08-25T07:52:50;97172.41;;;25.59;nan
21869;BME280;11099;41.564;23.296;2022-08-25T07:55:16;97170.28;;;26.41;nan
21869;BME280;11099;41.564;23.296;2022-08-25T07:57:42;97240.41;;;27.07;nan
21869;BME280;11099;41.564;23.296;2022-08-25T08:00:09;97242.22;;;26.94;nan
21869;BME280;11099;41.564;23.296;2022-08-25T08:02:39;97179.28;;;26.61;nan
21869;BME280;11099;41.564;23.296;2022-08-25T08:05:07;97232.53;;;27.29;nan
21869;BME280;11099;41.564;23.296;2022-08-25T08:07:33;97170.44;;;26.93;nan
21869;BME280;11099;41.564;23.296;2022-08-25T08:09:58;97233.66;;;26.52;nan
21869;BME280;11099;41.564;23.296;2022-08-25T08:12:24;97171.72;;;26.69;nan
21869;BME280;11099;41.564;23.296;2022-08-25T08:14:51;97227.38;;;26.75;nan
21869;BME280;11099;41.564;23.296;2022-08-25T08:17:17;97192.22;;;26.77;nan
21869;BME280;11099;41.564;23.296;2022-08-25T08:19:43;97228.94;;;27.16;nan
21869;BME280;11099;41.564;23.296;2022-08-25T08:22:09;97196.78;;;26.40;nan
21869;BME280;11099;41.564;23.296;2022-08-25T08:24:40;97225.69;;;26.61;nan
21869;BME280;11099;41.564;23.296;2022-08-25T08:27:08;97226.31;;;27.09;nan
21869;BME280;11099;41.564;23.296;2022-08-25T08:29:35;97173.59;;;26.52;nan
21869;BME280;11099;41.564;23.296;2022-08-25T08:32:02;97157.88;;;26.60;nan
21869;BME280;11099;41.564;23.296;2022-08-25T08:34:29;97223.88;;;27.50;nan
21869;BME280;11099;41.564;23.296;2022-08-25T08:36:55;97217.91;;;27.55;nan
21869;BME280;11099;41.564;23.296;2022-08-25T08:39:21;97182.97;;;27.11;nan
21869;BME280;11099;41.564;23.296;2022-08-25T08:42:00;97222.53;;;27.58;nan
21869;BME280;11099;41.564;23.296;2022-08-25T08:50:01;97221.84;;;27.54;nan
21869;BME280;11099;41.564;23.296;2022-08-25T08:55:37;97218.75;;;27.52;nan
21869;BME280;11099;41.564;23.296;2022-08-25T08:58:23;97230.53;;;27.86;nan
21869;BME280;11099;41.564;23.296;2022-08-25T09:00:54;97180.09;;;26.98;nan
21869;BME280;11099;41.564;23.296;2022-08-25T09:03:34;97174.44;;;27.25;nan
21869;BME280;11099;41.564;23.296;2022-08-25T09:06:27;97209.66;;;27.75;nan
21869;BME280;11099;41.564;23.296;2022-08-25T09:08:58;97198.72;;;27.75;nan
21869;BME280;11099;41.564;23.296;2022-08-25T09:11:30;97197.97;;;27.75;nan
21869;BME280;11099;41.564;23.296;2022-08-25T09:17:10;97181.97;;;27.73;nan
21869;BME280;11099;41.564;23.296;2022-08-25T09:20:02;97194.59;;;28.00;nan
21869;BME280;11099;41.564;23.296;2022-08-25T09:22:40;97187.41;;;28.51;nan
21869;BME280;11099;41.564;23.296;2022-08-25T09:25:25;97136.56;;;27.92;nan
21869;BME280;11099;41.564;23.296;2022-08-25T09:28:30;97182.22;;;27.95;nan
21869;BME280;11099;41.564;23.296;2022-08-25T09:31:02;97193.06;;;28.15;nan
21869;BME280;11099;41.564;23.296;2022-08-25T09:33:33;97179.97;;;28.06;nan
21869;BME280;11099;41.564;23.296;2022-08-25T09:36:06;97186.44;;;28.29;nan
21869;BME280;11099;41.564;23.296;2022-08-25T09:38:32;97175.00;;;28.18;nan
21869;BME280;11099;41.564;23.296;2022-08-25T09:40:59;97122.91;;;28.21;nan
21869;BME280;11099;41.564;23.296;2022-08-25T09:43:35;97170.00;;;28.45;nan
21869;BME280;11099;41.564;23.296;2022-08-25T09:48:51;97167.63;;;28.31;nan
21869;BME280;11099;41.564;23.296;2022-08-25T09:51:34;97163.41;;;28.72;nan
21869;BME280;11099;41.564;23.296;2022-08-25T09:59:30;97151.00;;;28.96;nan
21869;BME280;11099;41.564;23.296;2022-08-25T10:02:00;97152.72;;;28.90;nan
21869;BME280;11099;41.564;23.296;2022-08-25T10:04:34;97136.28;;;28.90;nan
21869;BME280;11099;41.564;23.296;2022-08-25T10:07:03;97125.66;;;28.50;nan
21869;BME280;11099;41.564;23.296;2022-08-25T10:09:37;97153.50;;;29.03;nan
21869;BME280;11099;41.564;23.296;2022-08-25T10:12:16;97144.41;;;29.06;nan
21869;BME280;11099;41.564;23.296;2022-08-25T10:14:45;97100.63;;;28.77;nan
21869;BME280;11099;41.564;23.296;2022-08-25T10:17:13;97155.06;;;29.43;nan
21869;BME280;11099;41.564;23.296;2022-08-25T10:19:39;97142.72;;;29.85;nan
21869;BME280;11099;41.564;23.296;2022-08-25T10:22:11;97142.44;;;29.58;nan
21869;BME280;11099;41.564;23.296;2022-08-25T10:24:45;97140.38;;;29.62;nan
21869;BME280;11099;41.564;23.296;2022-08-25T10:35:19;97123.84;;;29.87;nan
21869;BME280;11099;41.564;23.296;2022-08-25T10:40:27;97089.75;;;29.50;nan
21869;BME280;11099;41.564;23.296;2022-08-25T10:43:04;97073.25;;;29.41;nan
21869;BME280;11099;41.564;23.296;2022-08-25T10:45:46;97127.19;;;29.70;nan
21869;BME280;11099;41.564;23.296;2022-08-25T10:48:41;97123.13;;;29.74;nan
21869;BME280;11099;41.564;23.296;2022-08-25T10:51:31;97125.91;;;29.61;nan
21869;BME280;11099;41.564;23.296;2022-08-25T10:54:22;97111.78;;;29.85;nan
21869;BME280;11099;41.564;23.296;2022-08-25T10:57:01;97038.13;;;29.61;nan
21869;BME280;11099;41.564;23.296;2022-08-25T11:08:13;97099.03;;;29.31;nan
21869;BME280;11099;41.564;23.296;2022-08-25T11:10:49;97113.94;;;29.30;nan
21869;BME280;11099;41.564;23.296;2022-08-25T11:13:24;97086.50;;;28.92;nan
21869;BME280;11099;41.564;23.296;2022-08-25T11:15:54;97045.50;;;28.88;nan
21869;BME280;11099;41.564;23.296;2022-08-25T11:18:24;97067.88;;;28.86;nan
21869;BME280;11099;41.564;23.296;2022-08-25T11:21:04;97094.94;;;29.23;nan
21869;BME280;11099;41.564;23.296;2022-08-25T11:26:25;97080.38;;;29.00;nan
21869;BME280;11099;41.564;23.296;2022-08-25T11:29:10;97091.22;;;29.55;nan
21869;BME280;11099;41.564;23.296;2022-08-25T11:31:39;97080.44;;;29.73;nan
21869;BME280;11099;41.564;23.296;2022-08-25T11:34:11;97075.31;;;29.62;nan
21869;BME280;11099;41.564;23.296;2022-08-25T11:36:47;97004.44;;;29.13;nan
21869;BME280;11099;41.564;23.296;2022-08-25T11:50:03;97060.44;;;30.07;nan
21869;BME280;11099;41.564;23.296;2022-08-25T11:55:06;96955.94;;;29.23;nan
21869;BME280;11099;41.564;23.296;2022-08-25T11:57:37;97012.63;;;29.74;nan
21869;BME280;11099;41.564;23.296;2022-08-25T12:00:14;97049.94;;;30.28;nan
21869;BME280;11099;41.564;23.296;2022-08-25T12:02:55;97017.66;;;30.41;nan
21869;BME280;11099;41.564;23.296;2022-08-25T12:10:23;97042.63;;;30.56;nan
21869;BME280;11099;41.564;23.296;2022-08-25T12:15:56;97015.16;;;30.56;nan
21869;BME280;11099;41.564;23.296;2022-08-25T12:23:30;96978.03;;;29.76;nan
21869;BME280;11099;41.564;23.296;2022-08-25T12:26:03;96974.34;;;29.70;nan
21869;BME280;11099;41.564;23.296;2022-08-25T12:37:31;96986.38;;;30.38;nan
21869;BME280;11099;41.564;23.296;2022-08-25T12:40:04;97028.56;;;30.85;nan
21869;BME280;11099;41.564;23.296;2022-08-25T12:42:38;97022.97;;;30.66;nan
21869;BME280;11099;41.564;23.296;2022-08-25T12:47:49;96990.44;;;30.56;nan
21869;BME280;11099;41.564;23.296;2022-08-25T12:50:38;97025.34;;;30.86;nan
21869;BME280;11099;41.564;23.296;2022-08-25T12:55:48;97009.66;;;30.56;nan
21869;BME280;11099;41.564;23.296;2022-08-25T12:58:15;97001.91;;;30.63;nan
21869;BME280;11099;41.564;23.296;2022-08-25T13:00:55;97012.19;;;30.72;nan
21869;BME280;11099;41.564;23.296;2022-08-25T13:09:42;97013.75;;;30.51;nan
21869;BME280;11099;41.564;23.296;2022-08-25T13:14:43;97004.28;;;30.83;nan
21869;BME280;11099;41.564;23.296;2022-08-25T13:17:10;96989.63;;;30.77;nan
21869;BME280;11099;41.564;23.296;2022-08-25T13:19:36;97003.13;;;31.03;nan
21869;BME280;11099;41.564;23.296;2022-08-25T13:22:12;96917.22;;;30.31;nan
21869;BME280;11099;41.564;23.296;2022-08-25T13:24:41;96849.16;;;29.85;nan
21869;BME280;11099;41.564;23.296;2022-08-25T13:27:17;96957.22;;;29.88;nan
21869;BME280;11099;41.564;23.296;2022-08-25T13:29:56;96959.41;;;30.15;nan
21869;BME280;11099;41.564;23.296;2022-08-25T13:32:34;97009.63;;;30.78;nan
21869;BME280;11099;41.564;23.296;2022-08-25T13:35:14;96990.41;;;30.87;nan
21869;BME280;11099;41.564;23.296;2022-08-25T13:37:40;96996.81;;;30.93;nan
21869;BME280;11099;41.564;23.296;2022-08-25T13:40:21;96993.22;;;31.05;nan
21869;BME280;11099;41.564;23.296;2022-08-25T13:42:54;96991.97;;;30.97;nan
21869;BME280;11099;41.564;23.296;2022-08-25T13:45:27;96917.72;;;30.38;nan
21869;BME280;11099;41.564;23.296;2022-08-25T13:47:53;96994.25;;;30.58;nan
21869;BME280;11099;41.564;23.296;2022-08-25T13:52:55;96987.16;;;30.39;nan
21869;BME280;11099;41.564;23.296;2022-08-25T13:56:08;96945.16;;;30.29;nan
21869;BME280;11099;41.564;23.296;2022-08-25T13:58:14;96943.75;;;30.25;nan
21869;BME280;11099;41.564;23.296;2022-08-25T14:01:01;96976.88;;;30.61;nan
21869;BME280;11099;41.564;23.296;2022-08-25T14:03:47;96900.38;;;29.66;nan
21869;BME280;11099;41.564;23.296;2022-08-25T14:08:44;96866.13;;;29.49;nan
21869;BME280;11099;41.564;23.296;2022-08-25T14:11:40;96975.00;;;30.27;nan
21869;BME280;11099;41.564;23.296;2022-08-25T14:14:10;96951.03;;;29.97;nan
21869;BME280;11099;41.564;23.296;2022-08-25T14:16:48;96977.44;;;30.03;nan
21869;BME280;11099;41.564;23.296;2022-08-25T14:19:17;96985.03;;;30.12;nan
21869;BME280;11099;41.564;23.296;2022-08-25T14:21:43;97009.34;;;29.88;nan
21869;BME280;11099;41.564;23.296;2022-08-25T14:24:14;96893.31;;;29.34;nan
21869;BME280;11099;41.564;23.296;2022-08-25T14:26:40;96874.50;;;29.11;nan
21869;BME280;11099;41.564;23.296;2022-08-25T14:29:05;96929.00;;;29.56;nan
21869;BME280;11099;41.564;23.296;2022-08-25T14:31:33;96987.50;;;30.19;nan
21869;BME280;11099;41.564;23.296;2022-08-25T14:34:09;96962.09;;;29.84;nan
21869;BME280;11099;41.564;23.296;2022-08-25T14:36:37;96979.94;;;29.88;nan
21869;BME280;11099;41.564;23.296;2022-08-25T14:39:03;96879.22;;;29.10;nan
21869;BME280;11099;41.564;23.296;2022-08-25T14:41:32;96977.00;;;29.61;nan
21869;BME280;11099;41.564;23.296;2022-08-25T14:43:59;96946.72;;;29.30;nan
21869;BME280;11099;41.564;23.296;2022-08-25T14:46:28;96955.31;;;29.19;nan
21869;BME280;11099;41.564;23.296;2022-08-25T14:49:02;96899.09;;;28.89;nan
21869;BME280;11099;41.564;23.296;2022-08-25T14:51:30;96911.34;;;28.63;nan
21869;BME280;11099;41.564;23.296;2022-08-25T14:53:59;96957.53;;;28.86;nan
21869;BME280;11099;41.564;23.296;2022-08-25T14:56:27;96957.09;;;28.87;nan
21869;BME280;11099;41.564;23.296;2022-08-25T14:58:53;96792.13;;;28.10;nan
21869;BME280;11099;41.564;23.296;2022-08-25T15:01:20;96960.81;;;29.41;nan
21869;BME280;11099;41.564;23.296;2022-08-25T15:03:47;96963.31;;;29.48;nan
21869;BME280;11099;41.564;23.296;2022-08-25T15:06:16;96856.94;;;28.86;nan